createdAt,value
2023-05-23T00:00:19.382Z,9.60
2023-05-23T00:01:11.283Z,7.70
2023-05-23T00:01:44.978Z,7.70
2023-05-23T00:02:16.886Z,7.70
2023-05-23T00:02:49.303Z,7.70
2023-05-23T00:03:23.966Z,7.80
2023-05-23T00:03:56.181Z,7.70
2023-05-23T00:04:28.236Z,8.10
2023-05-23T00:05:03.054Z,8.60
2023-05-23T00:05:34.844Z,8.70
2023-05-23T00:06:07.076Z,8.00
2023-05-23T00:06:39.173Z,8.10
2023-05-23T00:07:11.280Z,8.40
2023-05-23T00:07:44.603Z,9.10
2023-05-23T00:08:17.390Z,8.00
2023-05-23T00:08:49.948Z,9.10
2023-05-23T00:09:21.676Z,7.80
2023-05-23T00:09:53.562Z,8.10
2023-05-23T00:10:25.523Z,8.40
2023-05-23T00:10:57.772Z,8.80
2023-05-23T00:11:30.684Z,9.70
2023-05-23T00:12:02.733Z,8.30
2023-05-23T00:12:34.594Z,8.90
2023-05-23T00:13:08.958Z,8.80
2023-05-23T00:13:41.921Z,8.10
2023-05-23T00:14:17.354Z,8.00
2023-05-23T00:14:49.147Z,8.10
2023-05-23T00:15:22.122Z,8.90
2023-05-23T00:15:54.091Z,8.70
2023-05-23T00:16:26.058Z,9.20
2023-05-23T00:16:59.191Z,9.70
2023-05-23T00:17:31.084Z,8.70
2023-05-23T00:18:03.152Z,8.90
2023-05-23T00:18:36.259Z,9.50
2023-05-23T00:19:09.608Z,9.00
2023-05-23T00:19:45.083Z,8.30
2023-05-23T00:20:17.033Z,8.50
2023-05-23T00:20:48.939Z,9.50
2023-05-23T00:21:20.884Z,9.70
2023-05-23T00:21:56.347Z,9.00
2023-05-23T00:22:28.108Z,8.60
2023-05-23T00:23:00.020Z,9.00
2023-05-23T00:23:33.460Z,9.10
2023-05-23T00:24:05.552Z,9.00
2023-05-23T00:24:37.504Z,8.10
2023-05-23T00:25:09.891Z,8.40
2023-05-23T00:25:41.958Z,7.50
2023-05-23T00:26:13.955Z,8.00
2023-05-23T00:26:48.664Z,8.10
2023-05-23T00:27:20.660Z,8.20
2023-05-23T00:27:52.598Z,8.10
2023-05-23T00:28:25.471Z,8.10
2023-05-23T00:28:57.651Z,8.10
2023-05-23T00:29:29.508Z,7.70
2023-05-23T00:30:01.698Z,8.20
2023-05-23T00:30:33.730Z,8.10
2023-05-23T00:31:06.021Z,8.60
2023-05-23T00:31:37.911Z,7.40
2023-05-23T00:32:09.866Z,8.60
2023-05-23T00:32:41.853Z,9.50
2023-05-23T00:33:13.908Z,8.70
2023-05-23T00:33:45.862Z,8.80
2023-05-23T00:34:18.226Z,8.30
2023-05-23T00:34:50.232Z,8.40
2023-05-23T00:35:23.228Z,8.20
2023-05-23T00:35:55.577Z,8.60
2023-05-23T00:36:27.506Z,8.50
2023-05-23T00:36:59.387Z,8.40
2023-05-23T00:37:31.953Z,7.70
2023-05-23T00:38:03.966Z,9.10
2023-05-23T00:38:35.831Z,8.80
2023-05-23T00:39:10.920Z,9.40
2023-05-23T00:39:42.747Z,9.20
2023-05-23T00:40:14.638Z,8.70
2023-05-23T00:40:46.514Z,8.50
2023-05-23T00:41:19.150Z,8.70
2023-05-23T00:41:52.673Z,9.60
2023-05-23T00:42:25.359Z,8.20
2023-05-23T00:42:57.102Z,8.60
2023-05-23T00:43:29.060Z,9.10
2023-05-23T00:44:01.189Z,8.20
2023-05-23T00:44:32.935Z,9.10
2023-05-23T00:45:05.977Z,9.20
2023-05-23T00:45:37.823Z,9.00
2023-05-23T00:46:11.126Z,8.20
2023-05-23T00:46:45.613Z,8.10
2023-05-23T00:47:18.232Z,9.60
2023-05-23T00:47:51.039Z,7.90
2023-05-23T00:48:25.276Z,8.60
2023-05-23T00:48:57.393Z,8.40
2023-05-23T00:49:29.971Z,9.00
2023-05-23T00:50:01.881Z,8.40
2023-05-23T00:50:33.754Z,8.20
2023-05-23T00:51:05.826Z,8.40
2023-05-23T00:51:38.239Z,9.00
2023-05-23T00:52:10.789Z,8.90
2023-05-23T00:52:45.214Z,8.50
2023-05-23T00:53:17.617Z,8.70
2023-05-23T00:53:49.766Z,8.60
2023-05-23T00:54:26.782Z,9.50
2023-05-23T00:54:58.780Z,8.50
2023-05-23T00:55:31.211Z,8.80
2023-05-23T00:56:03.293Z,8.60
2023-05-23T00:56:36.344Z,8.70
2023-05-23T00:57:08.239Z,9.30
2023-05-23T00:57:41.150Z,8.60
2023-05-23T00:58:14.789Z,9.60
2023-05-23T00:58:47.140Z,9.10
2023-05-23T00:59:21.025Z,9.80
2023-05-23T00:59:53.018Z,9.20
2023-05-23T01:00:26.087Z,8.90
2023-05-23T01:00:59.368Z,9.50
2023-05-23T01:01:31.562Z,9.30
2023-05-23T01:02:03.646Z,9.40
2023-05-23T01:02:44.610Z,10.00
2023-05-23T01:03:18.793Z,9.70
2023-05-23T01:03:50.836Z,10.20
2023-05-23T01:04:29.131Z,9.90
2023-05-23T01:05:01.970Z,10.00
2023-05-23T01:05:34.109Z,10.90
2023-05-23T01:06:06.009Z,10.40
2023-05-23T01:06:37.963Z,9.90
2023-05-23T01:07:10.646Z,10.50
2023-05-23T01:07:43.428Z,10.30
2023-05-23T01:08:15.415Z,10.20
2023-05-23T01:08:47.506Z,10.80
2023-05-23T01:09:21.113Z,9.60
2023-05-23T01:09:52.973Z,9.80
2023-05-23T01:10:30.505Z,9.70
2023-05-23T01:11:10.881Z,10.10
2023-05-23T01:12:05.380Z,9.70
2023-05-23T01:13:10.949Z,9.20
2023-05-23T01:13:55.719Z,9.40
2023-05-23T01:14:37.646Z,9.50
2023-05-23T01:15:11.727Z,9.90
2023-05-23T01:16:09.866Z,8.50
2023-05-23T01:16:53.194Z,10.40
2023-05-23T01:17:52.387Z,10.30
2023-05-23T01:18:47.309Z,9.40
2023-05-23T01:20:00.782Z,9.20
2023-05-23T01:20:44.774Z,9.10
2023-05-23T01:21:18.473Z,9.40
2023-05-23T01:21:55.145Z,9.20
2023-05-23T01:22:42.155Z,10.20
2023-05-23T01:23:41.668Z,9.80
2023-05-23T01:24:43.304Z,9.50
2023-05-23T01:26:25.704Z,8.90
2023-05-23T01:27:19.955Z,8.80
2023-05-23T01:28:00.522Z,8.40
2023-05-23T01:28:37.666Z,9.20
2023-05-23T01:29:29.085Z,8.40
2023-05-23T01:30:02.849Z,9.10
2023-05-23T01:30:39.943Z,8.90
2023-05-23T01:31:13.007Z,9.50
2023-05-23T01:31:49.565Z,9.00
2023-05-23T01:32:23.069Z,9.00
2023-05-23T01:32:57.906Z,9.60
2023-05-23T01:33:32.140Z,9.00
2023-05-23T01:34:04.364Z,9.00
2023-05-23T01:34:36.468Z,9.70
2023-05-23T01:35:10.164Z,8.70
2023-05-23T01:35:43.388Z,8.70
2023-05-23T01:36:15.553Z,8.60
2023-05-23T01:36:50.576Z,8.20
2023-05-23T01:37:22.327Z,9.10
2023-05-23T01:37:57.230Z,9.20
2023-05-23T01:38:29.271Z,9.30
2023-05-23T01:39:01.769Z,9.10
2023-05-23T01:39:36.527Z,8.20
2023-05-23T01:40:08.715Z,8.80
2023-05-23T01:40:40.593Z,9.40
2023-05-23T01:41:12.513Z,9.30
2023-05-23T01:41:44.611Z,8.70
2023-05-23T01:42:16.654Z,8.80
2023-05-23T01:42:49.007Z,9.10
2023-05-23T01:43:22.090Z,8.30
2023-05-23T01:43:54.570Z,9.80
2023-05-23T01:44:26.856Z,8.90
2023-05-23T01:44:59.161Z,9.70
2023-05-23T01:45:31.475Z,9.10
2023-05-23T01:46:05.228Z,8.80
2023-05-23T01:46:41.224Z,8.60
2023-05-23T01:47:13.867Z,8.90
2023-05-23T01:47:48.646Z,8.90
2023-05-23T01:48:22.524Z,8.90
2023-05-23T01:48:56.579Z,8.60
2023-05-23T01:49:30.634Z,9.20
2023-05-23T01:50:03.472Z,9.00
2023-05-23T01:50:36.054Z,9.40
2023-05-23T01:51:07.973Z,9.20
2023-05-23T01:51:40.732Z,8.90
2023-05-23T01:52:15.093Z,9.00
2023-05-23T01:52:47.217Z,8.40
2023-05-23T01:53:22.074Z,8.60
2023-05-23T01:53:54.164Z,8.70
2023-05-23T01:54:28.849Z,8.80
2023-05-23T01:55:01.554Z,8.10
2023-05-23T01:55:34.952Z,9.30
2023-05-23T01:56:07.875Z,8.30
2023-05-23T01:56:40.949Z,8.80
2023-05-23T01:57:13.721Z,8.60
2023-05-23T01:57:49.228Z,8.00
2023-05-23T01:58:21.453Z,8.30
2023-05-23T01:58:53.816Z,7.60
2023-05-23T01:59:25.912Z,9.30
2023-05-23T01:59:57.798Z,8.00
2023-05-23T02:00:29.784Z,8.10
2023-05-23T02:01:01.977Z,7.70
2023-05-23T02:01:34.405Z,8.30
2023-05-23T02:02:06.375Z,9.00
2023-05-23T02:02:38.577Z,9.80
2023-05-23T02:03:11.382Z,8.60
2023-05-23T02:03:43.396Z,8.40
2023-05-23T02:04:15.807Z,8.90
2023-05-23T02:04:49.229Z,9.10
2023-05-23T02:05:21.104Z,8.40
2023-05-23T02:05:52.949Z,8.70
2023-05-23T02:06:24.790Z,8.50
2023-05-23T02:06:56.599Z,8.40
2023-05-23T02:07:28.419Z,9.10
2023-05-23T02:08:00.402Z,8.30
2023-05-23T02:08:32.251Z,7.70
2023-05-23T02:09:04.129Z,8.40
2023-05-23T02:09:35.975Z,9.20
2023-05-23T02:10:09.052Z,8.20
2023-05-23T02:10:40.880Z,9.20
2023-05-23T02:11:12.783Z,9.20
2023-05-23T02:11:44.764Z,8.80
2023-05-23T02:12:16.596Z,8.60
2023-05-23T02:12:48.418Z,8.40
2023-05-23T02:13:20.373Z,8.80
2023-05-23T02:13:52.116Z,9.60
2023-05-23T02:14:26.015Z,9.30
2023-05-23T02:14:57.924Z,9.40
2023-05-23T02:15:30.454Z,8.70
2023-05-23T02:16:03.543Z,8.80
2023-05-23T02:16:35.985Z,8.90
2023-05-23T02:17:11.384Z,8.50
2023-05-23T02:17:43.389Z,8.70
2023-05-23T02:18:15.367Z,9.10
2023-05-23T02:18:47.314Z,9.20
2023-05-23T02:19:19.608Z,8.50
2023-05-23T02:19:51.464Z,9.30
2023-05-23T02:20:23.303Z,8.10
2023-05-23T02:20:59.256Z,9.00
2023-05-23T02:21:32.482Z,9.00
2023-05-23T02:22:06.216Z,8.30
2023-05-23T02:22:38.445Z,8.60
2023-05-23T02:23:10.370Z,8.50
2023-05-23T02:23:42.183Z,9.30
2023-05-23T02:24:14.001Z,9.10
2023-05-23T02:24:45.841Z,9.10
2023-05-23T02:25:18.072Z,8.70
2023-05-23T02:25:50.055Z,8.60
2023-05-23T02:26:22.052Z,9.20
2023-05-23T02:26:53.939Z,9.40
2023-05-23T02:27:25.810Z,8.60
2023-05-23T02:27:57.861Z,7.90
2023-05-23T02:28:29.636Z,8.60
2023-05-23T02:29:01.657Z,8.30
2023-05-23T02:29:33.508Z,8.20
2023-05-23T02:30:06.088Z,8.10
2023-05-23T02:30:38.004Z,8.30
2023-05-23T02:31:10.411Z,7.30
2023-05-23T02:31:42.361Z,8.20
2023-05-23T02:32:14.331Z,8.50
2023-05-23T02:32:46.174Z,7.60
2023-05-23T02:33:19.202Z,7.70
2023-05-23T02:33:51.109Z,7.80
2023-05-23T02:34:22.988Z,7.80
2023-05-23T02:34:57.011Z,8.00
2023-05-23T02:35:29.350Z,7.70
2023-05-23T02:36:01.744Z,7.60
2023-05-23T02:36:33.734Z,7.50
2023-05-23T02:37:05.533Z,7.60
2023-05-23T02:37:37.539Z,7.70
2023-05-23T02:38:09.449Z,8.00
2023-05-23T02:38:41.247Z,8.40
2023-05-23T02:39:13.078Z,8.00
2023-05-23T02:39:44.900Z,8.40
2023-05-23T02:40:16.836Z,7.50
2023-05-23T02:40:50.055Z,8.80
2023-05-23T02:41:22.642Z,7.90
2023-05-23T02:41:54.636Z,11.90
2023-05-23T02:42:26.513Z,10.10
2023-05-23T02:42:58.289Z,8.00
2023-05-23T02:43:30.122Z,9.00
2023-05-23T02:44:01.931Z,8.10
2023-05-23T02:44:33.763Z,7.80
2023-05-23T02:45:06.162Z,7.30
2023-05-23T02:45:37.957Z,8.40
2023-05-23T02:46:09.971Z,8.30
2023-05-23T02:46:41.849Z,8.20
2023-05-23T02:47:13.805Z,9.20
2023-05-23T02:47:45.630Z,8.30
2023-05-23T02:48:17.530Z,8.30
2023-05-23T02:48:49.698Z,8.60
2023-05-23T02:49:21.671Z,8.60
2023-05-23T02:49:53.632Z,8.40
2023-05-23T02:50:25.706Z,8.60
2023-05-23T02:50:57.651Z,8.30
2023-05-23T02:51:29.552Z,8.50
2023-05-23T02:52:01.606Z,8.80
2023-05-23T02:52:33.658Z,7.90
2023-05-23T02:53:05.864Z,8.40
2023-05-23T02:53:38.013Z,8.20
2023-05-23T02:54:09.948Z,8.20
2023-05-23T02:54:41.773Z,7.90
2023-05-23T02:55:13.546Z,8.80
2023-05-23T02:55:45.354Z,8.20
2023-05-23T02:56:18.438Z,7.30
2023-05-23T02:56:51.926Z,7.90
2023-05-23T02:57:23.701Z,8.00
2023-05-23T02:57:56.422Z,7.70
2023-05-23T02:58:29.349Z,8.30
2023-05-23T02:59:01.255Z,7.30
2023-05-23T02:59:33.505Z,7.40
2023-05-23T03:00:06.021Z,7.80
2023-05-23T03:00:38.119Z,7.00
2023-05-23T03:01:10.032Z,7.20
2023-05-23T03:01:41.922Z,6.90
2023-05-23T03:02:13.783Z,8.90
2023-05-23T03:02:45.738Z,8.60
2023-05-23T03:03:18.042Z,7.60
2023-05-23T03:03:50.210Z,8.80
2023-05-23T03:04:22.080Z,9.70
2023-05-23T03:04:55.579Z,11.10
2023-05-23T03:05:27.428Z,12.00
2023-05-23T03:05:59.434Z,10.30
2023-05-23T03:06:33.458Z,9.40
2023-05-23T03:07:11.380Z,8.10
2023-05-23T03:08:17.777Z,7.90
2023-05-23T03:08:50.156Z,7.50
2023-05-23T03:09:21.970Z,7.70
2023-05-23T03:09:53.907Z,7.00
2023-05-23T03:10:25.730Z,8.20
2023-05-23T03:10:57.865Z,6.90
2023-05-23T03:11:29.698Z,6.60
2023-05-23T03:12:01.520Z,6.90
2023-05-23T03:12:33.578Z,6.70
2023-05-23T03:13:05.452Z,7.20
2023-05-23T03:13:37.446Z,7.70
2023-05-23T03:14:09.299Z,6.80
2023-05-23T03:14:41.073Z,6.20
2023-05-23T03:15:12.876Z,6.70
2023-05-23T03:15:45.673Z,7.00
2023-05-23T03:16:17.558Z,6.80
2023-05-23T03:16:49.450Z,6.80
2023-05-23T03:17:21.469Z,7.20
2023-05-23T03:17:53.414Z,6.90
2023-05-23T03:18:25.438Z,7.90
2023-05-23T03:18:57.480Z,7.50
2023-05-23T03:19:29.509Z,7.40
2023-05-23T03:20:01.462Z,7.70
2023-05-23T03:20:33.609Z,7.00
2023-05-23T03:21:05.511Z,7.30
2023-05-23T03:21:37.381Z,7.50
2023-05-23T03:22:09.158Z,6.90
2023-05-23T03:22:43.029Z,8.00
2023-05-23T03:23:14.921Z,6.80
2023-05-23T03:23:46.688Z,7.40
2023-05-23T03:24:18.613Z,7.10
2023-05-23T03:24:50.550Z,7.30
2023-05-23T03:25:22.362Z,7.30
2023-05-23T03:25:54.428Z,7.30
2023-05-23T03:26:26.624Z,6.90
2023-05-23T03:26:58.515Z,6.70
2023-05-23T03:27:30.433Z,7.80
2023-05-23T03:28:02.484Z,6.50
2023-05-23T03:28:34.392Z,7.30
2023-05-23T03:29:06.761Z,7.10
2023-05-23T03:29:39.553Z,7.00
2023-05-23T03:30:12.496Z,7.20
2023-05-23T03:30:44.412Z,7.60
2023-05-23T03:31:16.734Z,7.70
2023-05-23T03:31:48.520Z,7.40
2023-05-23T03:32:20.429Z,7.10
2023-05-23T03:32:53.354Z,7.20
2023-05-23T03:33:25.265Z,7.30
2023-05-23T03:33:57.066Z,6.70
2023-05-23T03:34:29.696Z,7.60
2023-05-23T03:35:01.765Z,9.00
2023-05-23T03:35:33.697Z,7.10
2023-05-23T03:36:06.571Z,6.90
2023-05-23T03:36:38.837Z,7.00
2023-05-23T03:37:10.761Z,7.40
2023-05-23T03:37:42.632Z,7.80
2023-05-23T03:38:14.614Z,7.20
2023-05-23T03:38:46.552Z,7.60
2023-05-23T03:39:18.552Z,7.30
2023-05-23T03:39:50.371Z,7.30
2023-05-23T03:40:22.460Z,6.80
2023-05-23T03:40:54.306Z,7.30
2023-05-23T03:41:26.172Z,7.00
2023-05-23T03:41:58.071Z,7.40
2023-05-23T03:42:30.225Z,7.40
2023-05-23T03:43:04.213Z,7.60
2023-05-23T03:43:36.046Z,7.20
2023-05-23T03:44:07.864Z,6.90
2023-05-23T03:44:39.643Z,6.80
2023-05-23T03:45:11.832Z,6.90
2023-05-23T03:45:44.315Z,6.70
2023-05-23T03:46:16.654Z,7.30
2023-05-23T03:46:48.526Z,7.00
2023-05-23T03:47:20.192Z,6.20
2023-05-23T03:47:52.004Z,7.10
2023-05-23T03:48:23.869Z,7.80
2023-05-23T03:48:56.060Z,6.70
2023-05-23T03:49:28.256Z,7.40
2023-05-23T03:50:00.247Z,8.30
2023-05-23T03:50:32.219Z,8.00
2023-05-23T03:51:04.040Z,7.60
2023-05-23T03:51:35.923Z,8.60
2023-05-23T03:52:07.777Z,7.40
2023-05-23T03:52:39.542Z,7.90
2023-05-23T03:53:11.589Z,7.20
2023-05-23T03:53:43.354Z,7.30
2023-05-23T03:54:16.997Z,7.10
2023-05-23T03:54:48.913Z,7.30
2023-05-23T03:55:22.034Z,8.30
2023-05-23T03:55:54.096Z,7.70
2023-05-23T03:56:25.912Z,7.40
2023-05-23T03:56:57.838Z,7.10
2023-05-23T03:57:30.387Z,7.30
2023-05-23T03:58:02.368Z,6.70
2023-05-23T03:58:34.108Z,8.20
2023-05-23T03:59:06.174Z,6.90
2023-05-23T03:59:38.145Z,7.20
2023-05-23T04:00:13.758Z,6.90
2023-05-23T04:00:46.118Z,7.70
2023-05-23T04:01:17.940Z,7.60
2023-05-23T04:01:49.780Z,7.30
2023-05-23T04:02:22.005Z,6.70
2023-05-23T04:02:54.326Z,7.40
2023-05-23T04:03:26.906Z,7.20
2023-05-23T04:03:59.787Z,6.90
2023-05-23T04:04:31.720Z,6.80
2023-05-23T04:05:03.790Z,7.20
2023-05-23T04:05:35.856Z,7.40
2023-05-23T04:06:07.749Z,7.60
2023-05-23T04:06:39.678Z,7.70
2023-05-23T04:07:11.600Z,7.70
2023-05-23T04:07:44.610Z,8.10
2023-05-23T04:08:16.898Z,8.00
2023-05-23T04:08:48.689Z,8.00
2023-05-23T04:09:20.761Z,8.30
2023-05-23T04:09:52.462Z,8.00
2023-05-23T04:10:24.252Z,7.60
2023-05-23T04:10:56.005Z,7.80
2023-05-23T04:11:27.833Z,8.30
2023-05-23T04:11:59.815Z,8.20
2023-05-23T04:12:31.600Z,8.20
2023-05-23T04:13:04.011Z,7.80
2023-05-23T04:13:36.601Z,9.10
2023-05-23T04:14:08.365Z,7.70
2023-05-23T04:14:40.220Z,7.80
2023-05-23T04:15:12.190Z,7.70
2023-05-23T04:15:44.737Z,8.30
2023-05-23T04:16:16.652Z,7.80
2023-05-23T04:16:48.647Z,8.20
2023-05-23T04:17:20.757Z,7.60
2023-05-23T04:17:52.627Z,7.70
2023-05-23T04:18:24.618Z,7.80
2023-05-23T04:18:58.065Z,7.80
2023-05-23T04:19:29.925Z,8.00
2023-05-23T04:20:01.860Z,7.80
2023-05-23T04:20:33.672Z,8.30
2023-05-23T04:21:05.774Z,8.10
2023-05-23T04:21:37.679Z,9.60
2023-05-23T04:22:09.590Z,8.70
2023-05-23T04:22:41.526Z,8.40
2023-05-23T04:23:13.484Z,10.20
2023-05-23T04:23:45.700Z,7.90
2023-05-23T04:24:17.546Z,8.50
2023-05-23T04:24:49.316Z,8.50
2023-05-23T04:25:21.195Z,10.10
2023-05-23T04:25:53.007Z,9.70
2023-05-23T04:26:25.557Z,8.60
2023-05-23T04:26:58.843Z,8.50
2023-05-23T04:27:30.780Z,8.40
2023-05-23T04:28:02.750Z,8.70
2023-05-23T04:28:34.586Z,8.70
2023-05-23T04:29:06.879Z,8.40
2023-05-23T04:29:39.112Z,8.20
2023-05-23T04:30:11.424Z,8.00
2023-05-23T04:30:44.157Z,8.50
2023-05-23T04:31:16.034Z,8.70
2023-05-23T04:31:47.975Z,7.90
2023-05-23T04:32:22.454Z,8.30
2023-05-23T04:32:54.453Z,8.30
2023-05-23T04:33:27.835Z,7.70
2023-05-23T04:33:59.758Z,8.80
2023-05-23T04:34:34.813Z,8.30
2023-05-23T04:35:07.193Z,8.00
2023-05-23T04:35:40.423Z,8.30
2023-05-23T04:36:12.538Z,8.90
2023-05-23T04:36:44.904Z,10.40
2023-05-23T04:37:17.001Z,9.10
2023-05-23T04:37:48.845Z,10.30
2023-05-23T04:38:21.642Z,9.00
2023-05-23T04:38:53.594Z,9.80
2023-05-23T04:39:25.730Z,10.30
2023-05-23T04:39:59.171Z,10.10
2023-05-23T04:40:31.099Z,9.60
2023-05-23T04:41:03.095Z,8.90
2023-05-23T04:41:36.005Z,8.60
2023-05-23T04:42:08.475Z,8.40
2023-05-23T04:42:41.929Z,8.60
2023-05-23T04:43:13.980Z,9.30
2023-05-23T04:43:45.773Z,9.00
2023-05-23T04:44:17.586Z,8.50
2023-05-23T04:44:50.896Z,8.30
2023-05-23T04:45:23.150Z,8.00
2023-05-23T04:45:55.045Z,7.70
2023-05-23T04:46:26.999Z,7.90
2023-05-23T04:46:59.105Z,7.30
2023-05-23T04:48:07.155Z,7.80
2023-05-23T04:48:39.145Z,7.50
2023-05-23T04:49:12.491Z,7.80
2023-05-23T04:49:44.738Z,6.80
2023-05-23T04:50:17.896Z,7.40
2023-05-23T04:50:50.779Z,7.00
2023-05-23T04:51:22.632Z,7.00
2023-05-23T04:51:54.833Z,7.20
2023-05-23T04:52:27.946Z,7.00
2023-05-23T04:53:00.004Z,7.60
2023-05-23T04:53:32.031Z,7.90
2023-05-23T04:54:04.143Z,7.20
2023-05-23T04:54:37.010Z,7.40
2023-05-23T04:55:09.080Z,8.40
2023-05-23T04:55:41.409Z,8.40
2023-05-23T04:56:15.304Z,7.40
2023-05-23T04:56:47.132Z,7.70
2023-05-23T04:57:19.322Z,7.60
2023-05-23T04:57:51.131Z,7.20
2023-05-23T04:58:22.912Z,7.90
2023-05-23T04:58:55.724Z,7.90
2023-05-23T04:59:28.006Z,8.00
2023-05-23T05:00:00.757Z,7.70
2023-05-23T05:00:32.603Z,7.30
2023-05-23T05:01:06.049Z,7.70
2023-05-23T05:01:41.218Z,7.20
2023-05-23T05:02:13.481Z,7.80
2023-05-23T05:02:45.318Z,7.80
2023-05-23T05:03:17.528Z,8.20
2023-05-23T05:03:50.594Z,8.10
2023-05-23T05:04:23.101Z,8.30
2023-05-23T05:04:55.216Z,8.00
2023-05-23T05:05:27.252Z,7.60
2023-05-23T05:05:59.083Z,7.60
2023-05-23T05:06:31.192Z,8.80
2023-05-23T05:07:03.235Z,8.10
2023-05-23T05:07:38.793Z,7.90
2023-05-23T05:08:11.068Z,7.70
2023-05-23T05:08:43.490Z,8.10
2023-05-23T05:09:15.401Z,7.60
2023-05-23T05:09:47.294Z,8.60
2023-05-23T05:10:20.616Z,8.60
2023-05-23T05:10:53.493Z,9.90
2023-05-23T05:11:26.688Z,9.80
2023-05-23T05:11:59.016Z,10.30
2023-05-23T05:12:30.884Z,10.70
2023-05-23T05:13:02.869Z,10.20
2023-05-23T05:13:35.138Z,10.50
2023-05-23T05:14:07.082Z,9.40
2023-05-23T05:14:39.021Z,9.20
2023-05-23T05:15:11.438Z,8.30
2023-05-23T05:15:43.403Z,9.20
2023-05-23T05:16:15.407Z,9.50
2023-05-23T05:16:48.331Z,9.90
2023-05-23T05:17:20.385Z,8.40
2023-05-23T05:17:52.531Z,8.70
2023-05-23T05:18:26.597Z,7.50
2023-05-23T05:18:58.462Z,8.20
2023-05-23T05:19:30.899Z,8.40
2023-05-23T05:20:07.972Z,8.20
2023-05-23T05:20:40.228Z,7.40
2023-05-23T05:21:12.253Z,8.30
2023-05-23T05:21:44.091Z,7.70
2023-05-23T05:22:15.990Z,6.80
2023-05-23T05:22:55.288Z,7.10
2023-05-23T05:23:29.958Z,7.70
2023-05-23T05:24:01.826Z,7.70
2023-05-23T05:24:33.605Z,7.70
2023-05-23T05:25:07.192Z,7.10
2023-05-23T05:25:40.796Z,6.80
2023-05-23T05:26:13.314Z,7.00
2023-05-23T05:26:45.415Z,7.50
2023-05-23T05:27:17.295Z,7.40
2023-05-23T05:27:49.841Z,7.70
2023-05-23T05:28:22.502Z,7.70
2023-05-23T05:28:54.563Z,8.20
2023-05-23T05:29:26.583Z,7.50
2023-05-23T05:30:03.730Z,7.20
2023-05-23T05:30:35.672Z,7.70
2023-05-23T05:31:07.708Z,7.40
2023-05-23T05:31:40.425Z,7.10
2023-05-23T05:32:12.252Z,7.60
2023-05-23T05:32:45.814Z,6.50
2023-05-23T05:33:18.616Z,7.30
2023-05-23T05:33:50.446Z,8.10
2023-05-23T05:34:22.430Z,7.10
2023-05-23T05:34:54.177Z,7.50
2023-05-23T05:35:25.954Z,7.40
2023-05-23T05:35:57.737Z,7.40
2023-05-23T05:36:29.654Z,7.20
2023-05-23T05:37:01.672Z,8.10
2023-05-23T05:37:33.618Z,7.90
2023-05-23T05:38:06.505Z,7.30
2023-05-23T05:38:38.461Z,7.20
2023-05-23T05:39:10.345Z,7.50
2023-05-23T05:39:42.239Z,8.10
2023-05-23T05:40:14.146Z,10.60
2023-05-23T05:40:46.217Z,9.80
2023-05-23T05:41:18.116Z,10.30
2023-05-23T05:41:50.228Z,9.70
2023-05-23T05:42:22.859Z,9.10
2023-05-23T05:42:54.653Z,9.10
2023-05-23T05:43:26.506Z,9.70
2023-05-23T05:43:58.380Z,9.80
2023-05-23T05:44:30.479Z,9.60
2023-05-23T05:45:02.724Z,9.40
2023-05-23T05:45:34.632Z,9.00
2023-05-23T05:46:06.501Z,7.90
2023-05-23T05:46:38.340Z,7.60
2023-05-23T05:47:10.258Z,7.70
2023-05-23T05:47:42.100Z,8.30
2023-05-23T05:48:14.069Z,7.70
2023-05-23T05:48:46.801Z,7.80
2023-05-23T05:49:18.596Z,7.70
2023-05-23T05:49:50.543Z,8.50
2023-05-23T05:50:22.465Z,7.60
2023-05-23T05:50:54.298Z,8.60
2023-05-23T05:51:26.057Z,7.90
2023-05-23T05:51:57.915Z,7.50
2023-05-23T05:52:30.167Z,7.50
2023-05-23T05:53:03.003Z,7.80
2023-05-23T05:53:35.004Z,7.50
2023-05-23T05:54:07.170Z,7.20
2023-05-23T05:54:39.183Z,7.10
2023-05-23T05:55:11.150Z,7.80
2023-05-23T05:55:43.349Z,8.10
2023-05-23T05:56:15.327Z,8.20
2023-05-23T05:56:47.743Z,7.60
2023-05-23T05:57:19.806Z,7.70
2023-05-23T05:57:51.788Z,7.70
2023-05-23T05:58:23.718Z,7.40
2023-05-23T05:58:55.669Z,7.70
2023-05-23T05:59:27.642Z,7.60
2023-05-23T05:59:59.738Z,8.00
2023-05-23T06:00:31.723Z,10.50
2023-05-23T06:01:05.233Z,8.00
2023-05-23T06:01:37.479Z,7.80
2023-05-23T06:02:09.449Z,7.90
2023-05-23T06:02:47.016Z,7.90
2023-05-23T06:03:19.286Z,7.60
2023-05-23T06:03:51.404Z,8.00
2023-05-23T06:04:23.424Z,8.30
2023-05-23T06:04:55.306Z,8.30
2023-05-23T06:05:27.175Z,8.00
2023-05-23T06:05:59.367Z,7.90
2023-05-23T06:06:31.846Z,8.40
2023-05-23T06:07:03.851Z,7.50
2023-05-23T06:07:36.495Z,7.70
2023-05-23T06:08:08.519Z,7.80
2023-05-23T06:08:41.924Z,7.90
2023-05-23T06:09:13.831Z,7.10
2023-05-23T06:09:45.767Z,7.60
2023-05-23T06:10:17.660Z,7.20
2023-05-23T06:10:49.510Z,7.70
2023-05-23T06:11:21.370Z,8.60
2023-05-23T06:11:53.302Z,7.30
2023-05-23T06:12:25.332Z,7.10
2023-05-23T06:12:58.224Z,7.30
2023-05-23T06:13:30.141Z,7.40
2023-05-23T06:14:02.088Z,8.10
2023-05-23T06:14:34.049Z,7.20
2023-05-23T06:15:07.526Z,7.20
2023-05-23T06:15:39.502Z,7.60
2023-05-23T06:16:11.573Z,8.20
2023-05-23T06:16:44.040Z,7.40
2023-05-23T06:17:16.998Z,8.00
2023-05-23T06:17:49.204Z,8.00
2023-05-23T06:18:21.047Z,8.60
2023-05-23T06:18:52.837Z,7.90
2023-05-23T06:19:24.964Z,7.20
2023-05-23T06:19:57.032Z,7.20
2023-05-23T06:20:30.409Z,7.10
2023-05-23T06:21:02.544Z,6.90
2023-05-23T06:21:34.424Z,6.90
2023-05-23T06:22:06.233Z,7.60
2023-05-23T06:22:38.078Z,7.30
2023-05-23T06:23:09.933Z,7.70
2023-05-23T06:23:41.817Z,8.10
2023-05-23T06:24:13.675Z,7.70
2023-05-23T06:24:46.206Z,8.10
2023-05-23T06:25:18.066Z,7.50
2023-05-23T06:25:49.937Z,7.90
2023-05-23T06:26:21.786Z,8.30
2023-05-23T06:26:53.581Z,7.20
2023-05-23T06:27:25.450Z,7.50
2023-05-23T06:27:57.364Z,7.50
2023-05-23T06:28:29.199Z,8.50
2023-05-23T06:29:00.995Z,7.60
2023-05-23T06:29:35.274Z,8.30
2023-05-23T06:30:07.898Z,7.80
2023-05-23T06:30:40.056Z,7.60
2023-05-23T06:31:12.235Z,7.50
2023-05-23T06:31:44.228Z,7.50
2023-05-23T06:32:16.168Z,7.50
2023-05-23T06:32:48.064Z,7.30
2023-05-23T06:33:20.061Z,7.70
2023-05-23T06:33:51.991Z,8.40
2023-05-23T06:34:23.804Z,8.20
2023-05-23T06:34:56.043Z,7.40
2023-05-23T06:35:27.877Z,7.90
2023-05-23T06:35:59.833Z,7.60
2023-05-23T06:36:31.901Z,8.30
2023-05-23T06:37:03.899Z,9.20
2023-05-23T06:37:35.713Z,7.10
2023-05-23T06:38:07.867Z,8.70
2023-05-23T06:38:39.686Z,8.90
2023-05-23T06:39:11.402Z,8.10
2023-05-23T06:39:43.610Z,7.90
2023-05-23T06:40:15.492Z,8.20
2023-05-23T06:40:47.468Z,8.50
2023-05-23T06:41:19.392Z,8.20
2023-05-23T06:41:51.292Z,9.10
2023-05-23T06:42:23.141Z,7.80
2023-05-23T06:42:55.319Z,8.20
2023-05-23T06:43:27.096Z,8.60
2023-05-23T06:43:58.941Z,8.90
2023-05-23T06:44:30.799Z,8.70
2023-05-23T06:45:02.785Z,8.30
2023-05-23T06:45:35.648Z,7.60
2023-05-23T06:46:07.797Z,8.70
2023-05-23T06:46:40.528Z,8.20
2023-05-23T06:47:12.523Z,8.20
2023-05-23T06:47:45.043Z,8.20
2023-05-23T06:48:16.890Z,7.70
2023-05-23T06:48:50.814Z,8.40
2023-05-23T06:49:28.393Z,7.50
2023-05-23T06:50:00.282Z,8.40
2023-05-23T06:50:32.346Z,7.90
2023-05-23T06:51:04.218Z,8.70
2023-05-23T06:51:36.168Z,8.40
2023-05-23T06:52:07.966Z,9.10
2023-05-23T06:52:42.206Z,7.80
2023-05-23T06:53:14.421Z,7.90
2023-05-23T06:53:47.082Z,7.90
2023-05-23T06:54:19.200Z,8.20
2023-05-23T06:54:51.293Z,8.10
2023-05-23T06:55:24.014Z,8.40
2023-05-23T06:55:55.922Z,8.40
2023-05-23T06:56:27.754Z,8.80
2023-05-23T06:56:59.659Z,8.10
2023-05-23T06:57:31.491Z,8.00
2023-05-23T06:58:06.406Z,8.40
2023-05-23T06:58:38.589Z,8.40
2023-05-23T06:59:10.933Z,8.00
2023-05-23T06:59:42.937Z,8.00
2023-05-23T07:00:15.152Z,8.10
2023-05-23T07:00:47.182Z,8.70
2023-05-23T07:01:19.073Z,8.30
2023-05-23T07:01:50.977Z,8.60
2023-05-23T07:02:23.122Z,8.20
2023-05-23T07:02:55.242Z,8.30
2023-05-23T07:03:27.184Z,8.60
2023-05-23T07:03:59.104Z,8.20
2023-05-23T07:04:30.953Z,8.00
2023-05-23T07:05:03.357Z,8.50
2023-05-23T07:05:37.409Z,8.00
2023-05-23T07:06:12.338Z,8.90
2023-05-23T07:06:44.452Z,8.20
2023-05-23T07:07:16.330Z,8.00
2023-05-23T07:07:48.199Z,7.70
2023-05-23T07:08:20.046Z,8.70
2023-05-23T07:08:51.916Z,7.80
2023-05-23T07:09:23.775Z,8.00
2023-05-23T07:09:55.786Z,9.30
2023-05-23T07:10:27.665Z,8.60
2023-05-23T07:10:59.936Z,9.10
2023-05-23T07:11:31.978Z,9.10
2023-05-23T07:12:04.064Z,8.80
2023-05-23T07:12:36.115Z,8.40
2023-05-23T07:13:07.951Z,9.10
2023-05-23T07:13:39.824Z,9.10
2023-05-23T07:14:11.734Z,9.30
2023-05-23T07:14:43.584Z,9.40
2023-05-23T07:15:15.818Z,9.10
2023-05-23T07:15:47.627Z,8.90
2023-05-23T07:16:19.770Z,8.60
2023-05-23T07:16:51.698Z,8.40
2023-05-23T07:17:23.720Z,8.30
2023-05-23T07:17:55.703Z,8.60
2023-05-23T07:18:27.726Z,9.10
2023-05-23T07:19:01.552Z,8.50
2023-05-23T07:19:33.576Z,8.80